
Distance (Route):
Temperature : -15.9°C
Humidity : 13.8%
Pressure : 0hPa| Receiver | Frames | First received | Last received |
|---|---|---|---|
| LZ4TU-5 | 104 | 2026-09-05 00:41:13 | 2026-09-05 01:07:47 |
| Receiver | Date | Latitude | Longitude | Direction | Speed | Altitude | Climb | Temperature | Humidity | Pressure | Voltage | Killtimer | Uptime | BKT | XDATA |
|---|---|---|---|---|---|---|---|---|---|---|---|---|---|---|---|
| LZ4TU-5 | 2026-09-05 01:07:47 | 40.11077 | 22.86000 | 72° | 18km/h | 18066m | -8.5m/s | -15.9°C | 13.8% | 0hPa | 0V | 00:00:00 | 00:00:00 | 00:00:00 | |
| LZ4TU-5 | 2026-09-05 01:07:38 | 40.11052 | 22.85951 | 42° | 26km/h | 18122m | -5.1m/s | -16.6°C | 22.0% | 0hPa | 0V | 00:00:00 | 00:00:00 | 00:00:00 | |
| LZ4TU-5 | 2026-09-05 01:07:28 | 40.11016 | 22.85873 | 61° | 27km/h | 18187m | -4.4m/s | -20.0°C | 19.1% | 0hPa | 0V | 00:00:00 | 00:00:00 | 00:00:00 | |
| LZ4TU-5 | 2026-09-05 01:07:23 | 40.10999 | 22.85831 | 70° | 37km/h | 18214m | -6.3m/s | -20.0°C | 19.1% | 0hPa | 0V | 00:00:00 | 00:00:00 | 00:00:00 | |
| LZ4TU-5 | 2026-09-05 01:07:18 | 40.10981 | 22.85780 | 70° | 33km/h | 18251m | -6.4m/s | -20.0°C | 19.1% | 0hPa | 0V | 00:00:00 | 00:00:00 | 00:00:00 | |
| LZ4TU-5 | 2026-09-05 01:07:13 | 40.10970 | 22.85732 | 87° | 33km/h | 18286m | -8.3m/s | -20.0°C | 19.1% | 0hPa | 0V | 00:00:00 | 00:00:00 | 00:00:00 | |
| LZ4TU-5 | 2026-09-05 01:06:55 | 40.10947 | 22.85577 | 73° | 26km/h | 18409m | -4.9m/s | -21.6°C | 18.1% | 0hPa | 0V | 00:00:00 | 00:00:00 | 00:00:00 | |
| LZ4TU-5 | 2026-09-05 01:04:32 | 40.10628 | 22.84953 | 354° | 22km/h | 19460m | -7.2m/s | -63.7°C | 3.1% | 0hPa | 0V | 00:00:00 | 00:00:00 | 00:00:00 | |
| LZ4TU-5 | 2026-09-05 01:04:28 | 40.10608 | 22.84949 | 27° | 20km/h | 19496m | -7.9m/s | -63.7°C | 3.1% | 0hPa | 0V | 00:00:00 | 00:00:00 | 00:00:00 | |
| LZ4TU-5 | 2026-09-05 01:04:22 | 40.10580 | 22.84929 | 15° | 16km/h | 19543m | -6.1m/s | -63.7°C | 3.1% | 0hPa | 0V | 00:00:00 | 00:00:00 | 00:00:00 | |
| LZ4TU-5 | 2026-09-05 01:04:17 | 40.10556 | 22.84923 | 8° | 24km/h | 19582m | -7.1m/s | -63.7°C | 3.1% | 0hPa | 0V | 00:00:00 | 00:00:00 | 00:00:00 | |
| LZ4TU-5 | 2026-09-05 01:04:12 | 40.10532 | 22.84912 | 33° | 15km/h | 19624m | -7.5m/s | -63.7°C | 3.1% | 0hPa | 0V | 00:00:00 | 00:00:00 | 00:00:00 | |
| LZ4TU-5 | 2026-09-05 01:04:07 | 40.10516 | 22.84905 | 16° | 15km/h | 19667m | -7.7m/s | -63.7°C | 3.1% | 0hPa | 0V | 00:00:00 | 00:00:00 | 00:00:00 | |
| LZ4TU-5 | 2026-09-05 01:03:57 | 40.10479 | 22.84888 | 21° | 18km/h | 19742m | -7.7m/s | -60.0°C | 0.0% | 0hPa | 0V | 00:00:00 | 00:00:00 | 00:00:00 | |
| LZ4TU-5 | 2026-09-05 01:03:53 | 40.10469 | 22.84882 | 12° | 7km/h | 19770m | -7.8m/s | -60.0°C | 0.0% | 0hPa | 0V | 00:00:00 | 00:00:00 | 00:00:00 | |
| LZ4TU-5 | 2026-09-05 01:03:48 | 40.10466 | 22.84881 | 337° | 4km/h | 19813m | -6.8m/s | -60.0°C | 0.0% | 0hPa | 0V | 00:00:00 | 00:00:00 | 00:00:00 | |
| LZ4TU-5 | 2026-09-05 01:03:44 | 40.10457 | 22.84886 | 339° | 13km/h | 19845m | -7.4m/s | -60.0°C | 0.0% | 0hPa | 0V | 00:00:00 | 00:00:00 | 00:00:00 | |
| LZ4TU-5 | 2026-09-05 01:03:39 | 40.10451 | 22.84897 | 257° | 11km/h | 19879m | -6.7m/s | -60.0°C | 0.0% | 0hPa | 0V | 00:00:00 | 00:00:00 | 00:00:00 | |
| LZ4TU-5 | 2026-09-05 01:03:35 | 40.10451 | 22.84915 | 322° | 11km/h | 19911m | -5.8m/s | -60.0°C | 0.0% | 0hPa | 0V | 00:00:00 | 00:00:00 | 00:00:00 | |
| LZ4TU-5 | 2026-09-05 01:02:18 | 40.10177 | 22.84764 | 28° | 33km/h | 20444m | -4.2m/s | -63.7°C | 3.1% | 0hPa | 0V | 00:00:00 | 00:00:00 | 00:00:00 | |
| LZ4TU-5 | 2026-09-05 01:02:14 | 40.10146 | 22.84745 | 25° | 27km/h | 20473m | -8.6m/s | -63.7°C | 3.1% | 0hPa | 0V | 00:00:00 | 00:00:00 | 00:00:00 | |
| LZ4TU-5 | 2026-09-05 01:02:10 | 40.10123 | 22.84735 | 13° | 26km/h | 20506m | -7.2m/s | -63.7°C | 3.1% | 0hPa | 0V | 00:00:00 | 00:00:00 | 00:00:00 | |
| LZ4TU-5 | 2026-09-05 01:02:05 | 40.10088 | 22.84724 | 23° | 31km/h | 20540m | -7.2m/s | -63.7°C | 3.1% | 0hPa | 0V | 00:00:00 | 00:00:00 | 00:00:00 | |
| LZ4TU-5 | 2026-09-05 01:02:01 | 40.10061 | 22.84706 | 21° | 33km/h | 20573m | -10.3m/s | -63.7°C | 3.1% | 0hPa | 0V | 00:00:00 | 00:00:00 | 00:00:00 | |
| LZ4TU-5 | 2026-09-05 01:01:57 | 40.10038 | 22.84695 | 21° | 15km/h | 20609m | -8.8m/s | -63.7°C | 3.1% | 0hPa | 0V | 00:00:00 | 00:00:00 | 00:00:00 | |
| LZ4TU-5 | 2026-09-05 01:01:52 | 40.10021 | 22.84682 | 44° | 18km/h | 20649m | -6.1m/s | -63.7°C | 3.1% | 0hPa | 0V | 00:00:00 | 00:00:00 | 00:00:00 | |
| LZ4TU-5 | 2026-09-05 01:01:43 | 40.10001 | 22.84642 | 55° | 13km/h | 20720m | -5.4m/s | -60.0°C | 0.0% | 0hPa | 0V | 00:00:00 | 00:00:00 | 00:00:00 | |
| LZ4TU-5 | 2026-09-05 01:01:39 | 40.09990 | 22.84624 | 54° | 18km/h | 20751m | -6.3m/s | -60.0°C | 0.0% | 0hPa | 0V | 00:00:00 | 00:00:00 | 00:00:00 | |
| LZ4TU-5 | 2026-09-05 01:01:34 | 40.09983 | 22.84601 | 63° | 16km/h | 20783m | -2.5m/s | -60.0°C | 0.0% | 0hPa | 0V | 00:00:00 | 00:00:00 | 00:00:00 | |
| LZ4TU-5 | 2026-09-05 01:01:29 | 40.09972 | 22.84574 | 86° | 22km/h | 20815m | -8.3m/s | -60.0°C | 0.0% | 0hPa | 0V | 00:00:00 | 00:00:00 | 00:00:00 | |
| LZ4TU-5 | 2026-09-05 01:01:25 | 40.09973 | 22.84554 | 71° | 11km/h | 20850m | -5.5m/s | -60.0°C | 0.0% | 0hPa | 0V | 00:00:00 | 00:00:00 | 00:00:00 | |
| LZ4TU-5 | 2026-09-05 01:01:20 | 40.09955 | 22.84536 | 52° | 18km/h | 20883m | -6.0m/s | -60.0°C | 0.0% | 0hPa | 0V | 00:00:00 | 00:00:00 | 00:00:00 | |
| LZ4TU-5 | 2026-09-05 00:59:53 | 40.09978 | 22.84258 | 75° | 22km/h | 21670m | -10.9m/s | -57.9°C | 0.0% | 0hPa | 0V | 00:00:00 | 00:00:00 | 00:00:00 | |
| LZ4TU-5 | 2026-09-05 00:59:44 | 40.09992 | 22.84230 | 152° | 7km/h | 21740m | -9.9m/s | -60.0°C | 0.0% | 0hPa | 0V | 00:00:00 | 00:00:00 | 00:00:00 | |
| LZ4TU-5 | 2026-09-05 00:59:40 | 40.09995 | 22.84223 | 84° | 7km/h | 21772m | -7.2m/s | -60.0°C | 0.0% | 0hPa | 0V | 00:00:00 | 00:00:00 | 00:00:00 | |
| LZ4TU-5 | 2026-09-05 00:59:35 | 40.10002 | 22.84220 | 198° | 11km/h | 21803m | -3.8m/s | -60.0°C | 0.0% | 0hPa | 0V | 00:00:00 | 00:00:00 | 00:00:00 | |
| LZ4TU-5 | 2026-09-05 00:59:31 | 40.10010 | 22.84221 | 150° | 7km/h | 21831m | -9.1m/s | -60.0°C | 0.0% | 0hPa | 0V | 00:00:00 | 00:00:00 | 00:00:00 | |
| LZ4TU-5 | 2026-09-05 00:59:26 | 40.10020 | 22.84225 | 263° | 13km/h | 21872m | -9.8m/s | -60.0°C | 0.0% | 0hPa | 0V | 00:00:00 | 00:00:00 | 00:00:00 | |
| LZ4TU-5 | 2026-09-05 00:58:03 | 40.09967 | 22.84464 | 247° | 9km/h | 22491m | -6.9m/s | -57.9°C | 0.0% | 0hPa | 0V | 00:00:00 | 00:00:00 | 00:00:00 | |
| LZ4TU-5 | 2026-09-05 00:57:58 | 40.09969 | 22.84470 | 268° | 7km/h | 22527m | -9.4m/s | -57.9°C | 0.0% | 0hPa | 0V | 00:00:00 | 00:00:00 | 00:00:00 | |
| LZ4TU-5 | 2026-09-05 00:57:53 | 40.09967 | 22.84479 | 279° | 5km/h | 22569m | -9.7m/s | -57.9°C | 0.0% | 0hPa | 0V | 00:00:00 | 00:00:00 | 00:00:00 | |
| LZ4TU-5 | 2026-09-05 00:57:49 | 40.09965 | 22.84492 | 271° | 9km/h | 22601m | -4.6m/s | -57.9°C | 0.0% | 0hPa | 0V | 00:00:00 | 00:00:00 | 00:00:00 | |
| LZ4TU-5 | 2026-09-05 00:57:44 | 40.09966 | 22.84499 | 351° | 7km/h | 22652m | -10.4m/s | -57.9°C | 0.0% | 0hPa | 0V | 00:00:00 | 00:00:00 | 00:00:00 | |
| LZ4TU-5 | 2026-09-05 00:57:30 | 40.09940 | 22.84516 | 21° | 20km/h | 22744m | -6.0m/s | -60.0°C | 0.0% | 0hPa | 0V | 00:00:00 | 00:00:00 | 00:00:00 | |
| LZ4TU-5 | 2026-09-05 00:57:26 | 40.09926 | 22.84513 | 0° | 0km/h | 22778m | -8.9m/s | -60.0°C | 0.0% | 0hPa | 0V | 00:00:00 | 00:00:00 | 00:00:00 | |
| LZ4TU-5 | 2026-09-05 00:57:22 | 40.09931 | 22.84519 | 269° | 9km/h | 22807m | -8.0m/s | -60.0°C | 0.0% | 0hPa | 0V | 00:00:00 | 00:00:00 | 00:00:00 | |
| LZ4TU-5 | 2026-09-05 00:57:17 | 40.09920 | 22.84520 | 36° | 7km/h | 22840m | -4.2m/s | -60.0°C | 0.0% | 0hPa | 0V | 00:00:00 | 00:00:00 | 00:00:00 | |
| LZ4TU-5 | 2026-09-05 00:57:08 | 40.09941 | 22.84547 | 53° | 5km/h | 22911m | -7.2m/s | -46.6°C | 0.0% | 0hPa | 0V | 00:00:00 | 00:00:00 | 00:00:00 | |
| LZ4TU-5 | 2026-09-05 00:55:51 | 40.10036 | 22.84795 | 266° | 11km/h | 23214m | 4.3m/s | -57.9°C | 0.0% | 0hPa | 0V | 00:00:00 | 00:00:00 | 00:00:00 | |
| LZ4TU-5 | 2026-09-05 00:55:47 | 40.10038 | 22.84814 | 235° | 18km/h | 23196m | 5.2m/s | -57.7°C | 0.0% | 0hPa | 0V | 00:00:00 | 00:00:00 | 00:00:00 | |
| LZ4TU-5 | 2026-09-05 00:55:34 | 40.10061 | 22.84859 | 261° | 15km/h | 23138m | 4.3m/s | -56.0°C | 0.0% | 0hPa | 0V | 00:00:00 | 00:00:00 | 00:00:00 | |
| LZ4TU-5 | 2026-09-05 00:55:30 | 40.10064 | 22.84877 | 229° | 11km/h | 23120m | 4.1m/s | -54.6°C | 0.0% | 0hPa | 0V | 00:00:00 | 00:00:00 | 00:00:00 | |
| LZ4TU-5 | 2026-09-05 00:55:17 | 40.10079 | 22.84942 | 243° | 18km/h | 23061m | 3.6m/s | -46.6°C | 0.0% | 0hPa | 0V | 00:00:00 | 00:00:00 | 00:00:00 | |
| LZ4TU-5 | 2026-09-05 00:55:13 | 40.10080 | 22.84979 | 272° | 37km/h | 23042m | 5.1m/s | -46.6°C | 0.0% | 0hPa | 0V | 00:00:00 | 00:00:00 | 00:00:00 | |
| LZ4TU-5 | 2026-09-05 00:53:44 | 40.10149 | 22.85165 | 320° | 11km/h | 22640m | 3.5m/s | -54.6°C | 0.0% | 0hPa | 0V | 00:00:00 | 00:00:00 | 00:00:00 | |
| LZ4TU-5 | 2026-09-05 00:53:40 | 40.10135 | 22.85175 | 340° | 18km/h | 22622m | 4.6m/s | -54.6°C | 0.0% | 0hPa | 0V | 00:00:00 | 00:00:00 | 00:00:00 | |
| LZ4TU-5 | 2026-09-05 00:53:35 | 40.10127 | 22.85191 | 254° | 18km/h | 22598m | 3.8m/s | -54.6°C | 0.0% | 0hPa | 0V | 00:00:00 | 00:00:00 | 00:00:00 | |
| LZ4TU-5 | 2026-09-05 00:53:30 | 40.10125 | 22.85201 | 344° | 13km/h | 22576m | 5.3m/s | -48.0°C | 0.0% | 0hPa | 0V | 00:00:00 | 00:00:00 | 00:00:00 | |
| LZ4TU-5 | 2026-09-05 00:53:24 | 40.10115 | 22.85216 | 243° | 11km/h | 22550m | 5.1m/s | -48.0°C | 0.0% | 0hPa | 0V | 00:00:00 | 00:00:00 | 00:00:00 | |
| LZ4TU-5 | 2026-09-05 00:53:18 | 40.10112 | 22.85219 | 43° | 15km/h | 22524m | 3.1m/s | -48.0°C | 0.0% | 0hPa | 0V | 00:00:00 | 00:00:00 | 00:00:00 | |
| LZ4TU-5 | 2026-09-05 00:53:12 | 40.10117 | 22.85233 | 215° | 9km/h | 22496m | 4.0m/s | -48.0°C | 0.0% | 0hPa | 0V | 00:00:00 | 00:00:00 | 00:00:00 | |
| LZ4TU-5 | 2026-09-05 00:53:01 | 40.10115 | 22.85250 | 274° | 16km/h | 22447m | 3.6m/s | -46.6°C | 0.0% | 0hPa | 0V | 00:00:00 | 00:00:00 | 00:00:00 | |
| LZ4TU-5 | 2026-09-05 00:52:57 | 40.10113 | 22.85252 | 53° | 7km/h | 22429m | 3.9m/s | -46.6°C | 0.0% | 0hPa | 0V | 00:00:00 | 00:00:00 | 00:00:00 | |
| LZ4TU-5 | 2026-09-05 00:52:53 | 40.10104 | 22.85256 | 298° | 13km/h | 22413m | 4.2m/s | -46.6°C | 0.0% | 0hPa | 0V | 00:00:00 | 00:00:00 | 00:00:00 | |
| LZ4TU-5 | 2026-09-05 00:52:49 | 40.10105 | 22.85271 | 272° | 11km/h | 22396m | 4.6m/s | -46.6°C | 0.0% | 0hPa | 0V | 00:00:00 | 00:00:00 | 00:00:00 | |
| LZ4TU-5 | 2026-09-05 00:52:43 | 40.10096 | 22.85290 | 317° | 11km/h | 22368m | 5.3m/s | -46.6°C | 0.0% | 0hPa | 0V | 00:00:00 | 00:00:00 | 00:00:00 | |
| LZ4TU-5 | 2026-09-05 00:52:38 | 40.10092 | 22.85303 | 250° | 9km/h | 22346m | 3.5m/s | -46.6°C | 0.0% | 0hPa | 0V | 00:00:00 | 00:00:00 | 00:00:00 | |
| LZ4TU-5 | 2026-09-05 00:50:28 | 40.10114 | 22.85599 | 167° | 5km/h | 21775m | 4.3m/s | -45.8°C | 0.0% | 0hPa | 0V | 00:00:00 | 00:00:00 | 00:00:00 | |
| LZ4TU-5 | 2026-09-05 00:50:12 | 40.10148 | 22.85562 | 121° | 15km/h | 21701m | 5.3m/s | -46.2°C | 0.0% | 0hPa | 0V | 00:00:00 | 00:00:00 | 00:00:00 | |
| LZ4TU-5 | 2026-09-05 00:49:55 | 40.10155 | 22.85493 | 91° | 7km/h | 21626m | 3.6m/s | -41.6°C | 0.0% | 0hPa | 0V | 00:00:00 | 00:00:00 | 00:00:00 | |
| LZ4TU-5 | 2026-09-05 00:47:49 | 40.10058 | 22.85266 | 112° | 22km/h | 21079m | 3.7m/s | -41.6°C | 0.0% | 0hPa | 0V | 00:00:00 | 00:00:00 | 00:00:00 | |
| LZ4TU-5 | 2026-09-05 00:47:42 | 40.10065 | 22.85242 | 157° | 9km/h | 21048m | 4.7m/s | -42.7°C | 0.0% | 0hPa | 0V | 00:00:00 | 00:00:00 | 00:00:00 | |
| LZ4TU-5 | 2026-09-05 00:47:38 | 40.10078 | 22.85224 | 118° | 29km/h | 21031m | 3.4m/s | -42.7°C | 0.0% | 0hPa | 0V | 00:00:00 | 00:00:00 | 00:00:00 | |
| LZ4TU-5 | 2026-09-05 00:47:31 | 40.10072 | 22.85189 | 109° | 15km/h | 21000m | 4.0m/s | -43.6°C | 0.0% | 0hPa | 0V | 00:00:00 | 00:00:00 | 00:00:00 | |
| LZ4TU-5 | 2026-09-05 00:47:25 | 40.10082 | 22.85151 | 86° | 26km/h | 20974m | 3.8m/s | -43.8°C | 0.0% | 0hPa | 0V | 00:00:00 | 00:00:00 | 00:00:00 | |
| LZ4TU-5 | 2026-09-05 00:47:13 | 40.10087 | 22.85090 | 57° | 18km/h | 20919m | 3.7m/s | -43.8°C | 0% | 0hPa | 0V | 00:00:00 | 00:00:00 | 00:00:00 | |
| LZ4TU-5 | 2026-09-05 00:47:07 | 40.10088 | 22.85077 | 99° | 18km/h | 20896m | 5.1m/s | -44.0°C | 0.0% | 0hPa | 0V | 00:00:00 | 00:00:00 | 00:00:00 | |
| LZ4TU-5 | 2026-09-05 00:46:49 | 40.10064 | 22.84996 | 88° | 15km/h | 20813m | 4.2m/s | -44.4°C | 0.0% | 0hPa | 0V | 00:00:00 | 00:00:00 | 00:00:00 | |
| LZ4TU-5 | 2026-09-05 00:46:37 | 40.10045 | 22.84945 | 67° | 18km/h | 20760m | 5.3m/s | -44.4°C | 0.0% | 0hPa | 0V | 00:00:00 | 00:00:00 | 00:00:00 | |
| LZ4TU-5 | 2026-09-05 00:46:31 | 40.10026 | 22.84909 | 67° | 22km/h | 20733m | 5.4m/s | -44.4°C | 0.0% | 0hPa | 0V | 00:00:00 | 00:00:00 | 00:00:00 | |
| LZ4TU-5 | 2026-09-05 00:46:25 | 40.10019 | 22.84881 | 45° | 16km/h | 20706m | 5.4m/s | -44.5°C | 0.0% | 0hPa | 0V | 00:00:00 | 00:00:00 | 00:00:00 | |
| LZ4TU-5 | 2026-09-05 00:46:19 | 40.09997 | 22.84854 | 52° | 22km/h | 20679m | 5.3m/s | -44.7°C | 0.0% | 0hPa | 0V | 00:00:00 | 00:00:00 | 00:00:00 | |
| LZ4TU-5 | 2026-09-05 00:46:07 | 40.09959 | 22.84808 | 49° | 24km/h | 20623m | 4.5m/s | -44.9°C | 0.0% | 0hPa | 0V | 00:00:00 | 00:00:00 | 00:00:00 | |
| LZ4TU-5 | 2026-09-05 00:46:01 | 40.09929 | 22.84786 | 38° | 26km/h | 20596m | 3.9m/s | -44.9°C | 0.0% | 0hPa | 0V | 00:00:00 | 00:00:00 | 00:00:00 | |
| LZ4TU-5 | 2026-09-05 00:45:38 | 40.09770 | 22.84719 | 19° | 31km/h | 20497m | 4.4m/s | -44.5°C | 0.0% | 0hPa | 0V | 00:00:00 | 00:00:00 | 00:00:00 | |
| LZ4TU-5 | 2026-09-05 00:45:31 | 40.09720 | 22.84690 | 24° | 42km/h | 20465m | 3.8m/s | -44.6°C | 0.0% | 0hPa | 0V | 00:00:00 | 00:00:00 | 00:00:00 | |
| LZ4TU-5 | 2026-09-05 00:45:13 | 40.09579 | 22.84631 | 34° | 29km/h | 20388m | 3.9m/s | -44.6°C | 0.0% | 0hPa | 0V | 00:00:00 | 00:00:00 | 00:00:00 | |
| LZ4TU-5 | 2026-09-05 00:45:07 | 40.09536 | 22.84608 | 28° | 35km/h | 20362m | 4.1m/s | -44.8°C | 0% | 0hPa | 0V | 00:00:00 | 00:00:00 | 00:00:00 | |
| LZ4TU-5 | 2026-09-05 00:45:03 | 40.09513 | 22.84595 | 29° | 18km/h | 20345m | 4.0m/s | -44.8°C | 0.0% | 0hPa | 0V | 00:00:00 | 00:00:00 | 00:00:00 | |
| LZ4TU-5 | 2026-09-05 00:44:55 | 40.09464 | 22.84569 | 30° | 24km/h | 20312m | 3.5m/s | -44.8°C | 0.0% | 0hPa | 0V | 00:00:00 | 00:00:00 | 00:00:00 | |
| LZ4TU-5 | 2026-09-05 00:43:13 | 40.09182 | 22.84551 | 0° | 0km/h | 19878m | 3.8m/s | -45.0°C | 0.0% | 0hPa | 0V | 00:00:00 | 00:00:00 | 00:00:00 | |
| LZ4TU-5 | 2026-09-05 00:43:01 | 40.09162 | 22.84554 | 44° | 7km/h | 19822m | 4.5m/s | -45.0°C | 0% | 0hPa | 0V | 00:00:00 | 00:00:00 | 00:00:00 | |
| LZ4TU-5 | 2026-09-05 00:42:55 | 40.09151 | 22.84552 | 349° | 16km/h | 19795m | 5.3m/s | -45.0°C | 0.0% | 0hPa | 0V | 00:00:00 | 00:00:00 | 00:00:00 | |
| LZ4TU-5 | 2026-09-05 00:42:37 | 40.09082 | 22.84540 | 46° | 13km/h | 19712m | 3.9m/s | -44.8°C | 0.0% | 0hPa | 0V | 00:00:00 | 00:00:00 | 00:00:00 | |
| LZ4TU-5 | 2026-09-05 00:42:25 | 40.09045 | 22.84528 | 10° | 5km/h | 19658m | 4.7m/s | -44.8°C | 0.0% | 0hPa | 0V | 00:00:00 | 00:00:00 | 00:00:00 | |
| LZ4TU-5 | 2026-09-05 00:42:13 | 40.08993 | 22.84528 | 344° | 13km/h | 19606m | 4.7m/s | -44.8°C | 0.0% | 0hPa | 0V | 00:00:00 | 00:00:00 | 00:00:00 | |
| LZ4TU-5 | 2026-09-05 00:41:59 | 40.08927 | 22.84510 | 19° | 20km/h | 19545m | 5.0m/s | -45.1°C | 0.0% | 0hPa | 0V | 00:00:00 | 00:00:00 | 00:00:00 | |
| LZ4TU-5 | 2026-09-05 00:41:54 | 40.08901 | 22.84507 | 16° | 18km/h | 19524m | 3.7m/s | -44.9°C | 0.0% | 0hPa | 0V | 00:00:00 | 00:00:00 | 00:00:00 | |
| LZ4TU-5 | 2026-09-05 00:41:43 | 40.08840 | 22.84503 | 5° | 16km/h | 19478m | 3.4m/s | -44.9°C | 0.0% | 0hPa | 0V | 00:00:00 | 00:00:00 | 00:00:00 | |
| LZ4TU-5 | 2026-09-05 00:41:37 | 40.08808 | 22.84499 | 14° | 22km/h | 19452m | 4.2m/s | -44.9°C | 0.0% | 0hPa | 0V | 00:00:00 | 00:00:00 | 00:00:00 | |
| LZ4TU-5 | 2026-09-05 00:41:31 | 40.08776 | 22.84490 | 37° | 24km/h | 19425m | 3.5m/s | -44.7°C | 0.0% | 0hPa | 0V | 00:00:00 | 00:00:00 | 00:00:00 | |
| LZ4TU-5 | 2026-09-05 00:41:25 | 40.08739 | 22.84464 | 32° | 24km/h | 19400m | 3.5m/s | -44.7°C | 0.0% | 0hPa | 0V | 00:00:00 | 00:00:00 | 00:00:00 | |
| LZ4TU-5 | 2026-09-05 00:41:20 | 40.08717 | 22.84456 | 30° | 18km/h | 19379m | 5.0m/s | -44.7°C | 0.0% | 0hPa | 0V | 00:00:00 | 00:00:00 | 00:00:00 | |
| LZ4TU-5 | 2026-09-05 00:41:13 | 40.08686 | 22.84436 | 23° | 9km/h | 19349m | 5.2m/s | -44.7°C | 0.0% | 0hPa | 0V | 00:00:00 | 00:00:00 | 00:00:00 |